Main page
Satellite images 15-day forecastsClimateMarine weather Cyclones Lightning AirportsFAQ Newsletter About
Weather : Europe Africa North America South America Asia Australia-Oceania Others
Languages Contact

Bordeaux, France

Merignac

latitude: 44-50N, longitude: 000-42W, elevation: 49 m


METAR: LFBD 301100Z AUTO 32005KT 9999 SCT033 BKN042 BKN052 24/16 Q1017
short-TAF: out of date (50235 hours)
long-TAF: LFBD 300500Z 3006/3112 24005KT CAVOK TEMPO 3102/3106 VRB02KT 3000 MIFG NSC

Time: 13:06 (11:06 UTC)

Current weather observation

The report was made 6 minutes ago, at 11:00 UTC  
Wind 05 kt from the Northwest
Temperature 24°C
Humidity 61%
Pressure 1017 hPa
Visibility 10 km or more
Scattered clouds at a height of 3300 ft
Broken clouds at a height of 4200 ft
Broken clouds at a height of 5200 ft

Change units

Forecast

The report was made 5 hours and 51 minutes ago, at 05:15 UTC  
Forecast valid from 30 at 06 UTC to 31 at 12 UTC
Wind 05 kt from the West/Southwest
Visibility 10 km or more
no clouds below 1500 m and no cumulonimbus
Temporary
from 31 at 02 UTC to 31 at 06 UTC
Wind 02 kt from variable directions
Visibility 3000 m
shallow fog
The information on this site is subject to a disclaimer
Weather : Europe Africa North America South America Asia Australia-Oceania Others
Satellite images 15-day forecastsClimateMarine weather Cyclones Lightning AirportsFAQ Languages Contact Newsletter About